createdAt,value
2023-03-16T00:00:14.055Z,7.73
2023-03-16T00:02:22.744Z,8.80
2023-03-16T00:04:31.594Z,8.27
2023-03-16T00:06:40.208Z,7.23
2023-03-16T00:08:48.693Z,6.33
2023-03-16T00:10:58.774Z,7.03
2023-03-16T00:13:07.556Z,5.20
2023-03-16T00:15:16.322Z,5.13
2023-03-16T00:17:26.856Z,2.97
2023-03-16T00:19:35.569Z,5.97
2023-03-16T00:21:44.114Z,5.90
2023-03-16T00:23:53.573Z,7.00
2023-03-16T00:26:04.709Z,5.03
2023-03-16T00:28:14.219Z,4.10
2023-03-16T00:30:22.976Z,6.30
2023-03-16T00:32:32.425Z,7.00
2023-03-16T00:34:41.037Z,4.53
2023-03-16T00:36:49.560Z,7.77
2023-03-16T00:38:58.319Z,6.90
2023-03-16T00:41:09.624Z,6.20
2023-03-16T00:43:18.950Z,3.90
2023-03-16T00:45:27.633Z,5.93
2023-03-16T00:47:36.401Z,5.87
2023-03-16T00:49:46.112Z,4.33
2023-03-16T00:51:54.800Z,5.03
2023-03-16T00:54:05.151Z,6.37
2023-03-16T00:56:15.300Z,6.70
2023-03-16T00:58:24.730Z,2.13
2023-03-16T01:00:34.055Z,3.50
2023-03-16T01:02:42.630Z,4.73
2023-03-16T01:04:51.888Z,3.87
2023-03-16T01:07:00.624Z,3.50
2023-03-16T01:09:09.758Z,5.93
2023-03-16T01:11:21.222Z,5.10
2023-03-16T01:13:29.827Z,5.63
2023-03-16T01:15:38.318Z,3.13
2023-03-16T01:17:46.888Z,4.27
2023-03-16T01:19:55.774Z,6.63
2023-03-16T01:22:05.031Z,8.43
2023-03-16T01:24:14.104Z,2.83
2023-03-16T01:26:25.371Z,6.27
2023-03-16T01:28:34.502Z,3.27
2023-03-16T01:30:45.316Z,3.50
2023-03-16T01:32:53.940Z,3.63
2023-03-16T01:35:02.654Z,5.37
2023-03-16T01:37:11.473Z,5.43
2023-03-16T01:39:20.127Z,3.60
2023-03-16T01:41:30.141Z,4.07
2023-03-16T01:43:39.881Z,2.97
2023-03-16T01:46:18.204Z,4.07
2023-03-16T01:48:27.633Z,6.73
2023-03-16T01:50:36.148Z,4.37
2023-03-16T01:52:44.662Z,2.60
2023-03-16T01:54:54.538Z,4.83
2023-03-16T01:57:07.677Z,2.50
2023-03-16T01:59:17.587Z,4.60
2023-03-16T02:01:26.782Z,2.80
2023-03-16T02:03:35.743Z,3.97
2023-03-16T02:05:46.707Z,5.17
2023-03-16T02:08:00.365Z,3.33
2023-03-16T02:10:09.772Z,2.53
2023-03-16T02:12:21.216Z,3.30
2023-03-16T02:14:30.370Z,3.77
2023-03-16T02:16:41.496Z,2.63
2023-03-16T02:18:51.036Z,1.67
2023-03-16T02:21:05.657Z,3.00
2023-03-16T02:23:18.567Z,2.33
2023-03-16T02:25:30.365Z,3.07
2023-03-16T02:27:43.187Z,4.20
2023-03-16T02:30:06.702Z,4.70
2023-03-16T02:32:17.772Z,4.33
2023-03-16T02:34:27.451Z,3.27
2023-03-16T02:36:37.863Z,5.00
2023-03-16T02:38:46.940Z,6.00
2023-03-16T02:40:59.767Z,3.23
2023-03-16T02:43:10.049Z,4.87
2023-03-16T02:45:18.949Z,2.13
2023-03-16T02:47:32.461Z,3.50
2023-03-16T02:49:42.745Z,4.03
2023-03-16T02:51:51.809Z,3.43
2023-03-16T02:54:00.733Z,1.93
2023-03-16T02:56:09.987Z,3.53
2023-03-16T02:58:19.188Z,2.30
2023-03-16T03:00:30.102Z,1.60
2023-03-16T03:02:40.389Z,3.93
2023-03-16T03:04:49.073Z,1.30
2023-03-16T03:07:04.512Z,1.87
2023-03-16T03:09:13.567Z,2.33
2023-03-16T03:11:22.514Z,2.53
2023-03-16T03:13:31.752Z,1.70
2023-03-16T03:15:40.610Z,3.27
2023-03-16T03:17:50.881Z,1.63
2023-03-16T03:19:59.801Z,1.60
2023-03-16T03:22:08.892Z,1.80
2023-03-16T03:24:18.221Z,3.27
2023-03-16T03:26:27.193Z,4.83
2023-03-16T03:28:35.971Z,1.43
2023-03-16T03:30:44.975Z,1.83
2023-03-16T03:32:55.736Z,1.93
2023-03-16T03:35:04.290Z,1.07
2023-03-16T03:37:13.083Z,2.00
2023-03-16T03:39:21.912Z,1.50
2023-03-16T03:41:30.829Z,1.00
2023-03-16T03:43:39.465Z,3.60
2023-03-16T03:45:48.838Z,2.43
2023-03-16T03:47:59.274Z,1.13
2023-03-16T03:50:09.183Z,1.87
2023-03-16T03:52:17.835Z,1.67
2023-03-16T03:54:27.291Z,2.60
2023-03-16T03:56:36.019Z,1.43
2023-03-16T03:58:44.941Z,3.70
2023-03-16T04:00:54.303Z,1.30
2023-03-16T04:03:05.519Z,1.13
2023-03-16T04:05:14.636Z,2.30
2023-03-16T04:07:23.413Z,1.67
2023-03-16T04:09:34.021Z,1.97
2023-03-16T04:11:43.340Z,2.30
2023-03-16T04:13:54.158Z,1.67
2023-03-16T04:16:03.931Z,1.20
2023-03-16T04:18:14.525Z,2.20
2023-03-16T04:20:24.068Z,1.23
2023-03-16T04:22:32.788Z,0.93
2023-03-16T04:24:43.430Z,1.43
2023-03-16T04:26:54.764Z,2.27
2023-03-16T04:29:04.072Z,1.80
2023-03-16T04:31:13.136Z,1.57
2023-03-16T04:33:23.981Z,1.60
2023-03-16T04:35:33.538Z,1.57
2023-03-16T04:37:42.342Z,1.07
2023-03-16T04:39:50.904Z,3.67
2023-03-16T04:41:59.629Z,1.83
2023-03-16T04:44:09.017Z,1.80
2023-03-16T04:46:17.716Z,4.50
2023-03-16T04:48:27.775Z,1.97
2023-03-16T04:50:37.015Z,4.50
2023-03-16T04:52:45.636Z,2.30
2023-03-16T04:54:54.750Z,2.20
2023-03-16T04:57:05.214Z,1.33
2023-03-16T04:59:13.950Z,5.50
2023-03-16T05:01:23.015Z,1.57
2023-03-16T05:03:35.930Z,1.80
2023-03-16T05:05:45.707Z,4.53
2023-03-16T05:07:54.660Z,4.63
2023-03-16T05:10:03.651Z,2.67
2023-03-16T05:12:12.867Z,1.37
2023-03-16T05:14:21.899Z,3.57
2023-03-16T05:16:31.326Z,5.03
2023-03-16T05:18:41.951Z,2.43
2023-03-16T05:20:52.614Z,5.37
2023-03-16T05:23:01.644Z,4.93
2023-03-16T05:25:15.114Z,11.70
2023-03-16T05:27:24.475Z,3.20
2023-03-16T05:29:34.491Z,10.17
2023-03-16T05:31:46.852Z,5.53
2023-03-16T05:33:57.956Z,7.03
2023-03-16T05:36:07.207Z,4.63
2023-03-16T05:38:16.170Z,5.70
2023-03-16T05:40:25.036Z,5.80
2023-03-16T05:42:35.260Z,3.07
2023-03-16T05:44:45.018Z,8.40
2023-03-16T05:46:54.357Z,4.67
2023-03-16T05:49:04.796Z,7.50
2023-03-16T05:51:14.575Z,3.13
2023-03-16T05:53:29.086Z,1.90
2023-03-16T05:55:37.983Z,6.30
2023-03-16T05:57:47.531Z,5.50
2023-03-16T05:59:56.500Z,11.77
2023-03-16T06:02:05.187Z,4.97
2023-03-16T06:04:15.720Z,8.10
2023-03-16T06:06:24.796Z,3.27
2023-03-16T06:08:33.825Z,3.97
2023-03-16T06:10:42.547Z,5.33
2023-03-16T06:12:51.642Z,5.23
2023-03-16T06:15:00.992Z,6.33
2023-03-16T06:17:09.726Z,2.93
2023-03-16T06:19:20.056Z,2.57
2023-03-16T06:21:29.113Z,4.77
2023-03-16T06:23:38.242Z,8.93
2023-03-16T06:25:49.040Z,4.63
2023-03-16T06:27:57.810Z,4.00
2023-03-16T06:30:07.265Z,2.13
2023-03-16T06:32:16.639Z,2.57
2023-03-16T06:34:26.594Z,14.33
2023-03-16T06:36:35.852Z,1.43
2023-03-16T06:38:44.575Z,3.83
2023-03-16T06:40:56.241Z,4.70
2023-03-16T06:43:05.576Z,4.97
2023-03-16T06:45:15.481Z,3.77
2023-03-16T06:47:24.384Z,3.57
2023-03-16T06:49:35.360Z,3.07
2023-03-16T06:51:44.505Z,3.43
2023-03-16T06:53:53.752Z,5.63
2023-03-16T06:56:02.857Z,5.50
2023-03-16T06:58:11.977Z,2.63
2023-03-16T07:00:21.890Z,1.90
2023-03-16T07:02:30.674Z,1.77
2023-03-16T07:04:40.982Z,1.33
2023-03-16T07:06:50.484Z,2.37
2023-03-16T07:09:01.486Z,3.93
2023-03-16T07:11:10.345Z,1.47
2023-03-16T07:13:19.147Z,2.57
2023-03-16T07:15:28.088Z,3.70
2023-03-16T07:17:37.113Z,2.27
2023-03-16T07:19:47.288Z,2.90
2023-03-16T07:21:56.165Z,1.67
2023-03-16T07:24:05.398Z,4.73
2023-03-16T07:26:14.403Z,1.10
2023-03-16T07:28:23.510Z,1.50
2023-03-16T07:30:32.241Z,1.87
2023-03-16T07:32:42.124Z,4.70
2023-03-16T07:34:52.518Z,1.57
2023-03-16T07:37:02.828Z,2.60
2023-03-16T07:39:14.666Z,2.70
2023-03-16T07:41:23.696Z,5.53
2023-03-16T07:43:32.415Z,3.77
2023-03-16T07:45:41.724Z,3.10
2023-03-16T07:47:51.302Z,2.63
2023-03-16T07:50:01.512Z,2.03
2023-03-16T07:52:10.639Z,2.40
2023-03-16T07:54:19.440Z,3.37
2023-03-16T07:56:36.167Z,2.70
2023-03-16T07:58:51.541Z,3.33
2023-03-16T08:01:00.766Z,2.37
2023-03-16T08:03:12.698Z,2.23
2023-03-16T08:05:22.764Z,1.87
2023-03-16T08:07:32.394Z,4.53
2023-03-16T08:09:41.598Z,2.10
2023-03-16T08:11:50.307Z,3.00
2023-03-16T08:13:59.389Z,2.43
2023-03-16T08:16:10.538Z,3.23
2023-03-16T08:18:19.880Z,2.20
2023-03-16T08:20:31.070Z,6.90
2023-03-16T08:22:39.994Z,4.00
2023-03-16T08:24:49.548Z,4.47
2023-03-16T08:26:59.290Z,2.80
2023-03-16T08:29:08.396Z,3.10
2023-03-16T08:31:18.157Z,3.03
2023-03-16T08:33:28.291Z,4.17
2023-03-16T08:35:38.942Z,3.23
2023-03-16T08:37:47.631Z,3.47
2023-03-16T08:39:56.816Z,3.30
2023-03-16T08:42:05.497Z,2.97
2023-03-16T08:44:14.331Z,3.43
2023-03-16T08:46:24.608Z,7.27
2023-03-16T08:48:33.476Z,5.27
2023-03-16T08:50:44.547Z,8.33
2023-03-16T08:52:53.871Z,5.57
2023-03-16T08:55:05.037Z,3.53
2023-03-16T08:57:13.814Z,3.10
2023-03-16T08:59:29.696Z,3.33
2023-03-16T09:01:40.764Z,2.30
2023-03-16T09:03:49.814Z,2.40
2023-03-16T09:06:04.481Z,4.03
2023-03-16T09:08:13.825Z,6.27
2023-03-16T09:10:23.326Z,2.83
2023-03-16T09:12:32.530Z,5.60
2023-03-16T09:14:41.213Z,6.17
2023-03-16T09:16:50.109Z,4.13
2023-03-16T09:18:58.899Z,4.17
2023-03-16T09:21:10.795Z,2.37
2023-03-16T09:23:21.088Z,2.70
2023-03-16T09:25:31.090Z,3.43
2023-03-16T09:27:41.550Z,4.67
2023-03-16T09:29:53.182Z,5.67
2023-03-16T09:32:02.080Z,3.33
2023-03-16T09:34:11.833Z,2.40
2023-03-16T09:36:22.517Z,2.03
2023-03-16T09:38:32.985Z,1.97
2023-03-16T09:40:42.337Z,3.03
2023-03-16T09:42:55.363Z,5.63
2023-03-16T09:45:11.144Z,2.40
2023-03-16T09:47:24.319Z,2.20
2023-03-16T09:49:37.306Z,2.70
2023-03-16T09:51:50.934Z,2.33
2023-03-16T09:54:01.842Z,2.67
2023-03-16T09:56:12.455Z,2.40
2023-03-16T09:58:22.631Z,1.03
2023-03-16T10:00:33.093Z,2.10
2023-03-16T10:02:47.831Z,3.23
2023-03-16T10:05:00.525Z,4.90
2023-03-16T10:07:21.249Z,3.57
2023-03-16T10:09:35.097Z,4.87
2023-03-16T10:11:44.670Z,1.97
2023-03-16T10:13:56.572Z,2.70
2023-03-16T10:16:07.942Z,3.33
2023-03-16T10:18:19.524Z,7.00
2023-03-16T10:20:33.098Z,2.63
2023-03-16T10:22:44.965Z,7.73
2023-03-16T10:24:58.528Z,3.37
2023-03-16T10:27:08.789Z,4.63
2023-03-16T10:29:17.895Z,1.33
2023-03-16T10:31:26.672Z,5.73
2023-03-16T10:33:36.950Z,2.77
2023-03-16T10:35:48.677Z,1.67
2023-03-16T10:37:59.588Z,1.90
2023-03-16T10:40:13.037Z,3.90
2023-03-16T10:42:22.649Z,2.97
2023-03-16T10:44:32.288Z,2.27
2023-03-16T10:46:42.167Z,1.73
2023-03-16T10:48:59.876Z,4.07
2023-03-16T10:51:11.090Z,3.40
2023-03-16T10:53:22.801Z,6.90
2023-03-16T10:55:35.257Z,2.37
2023-03-16T10:57:45.702Z,4.67
2023-03-16T10:59:55.231Z,3.47
2023-03-16T11:02:05.630Z,3.17
2023-03-16T11:04:15.781Z,3.47
2023-03-16T11:06:26.022Z,7.03
2023-03-16T11:08:38.922Z,5.23
2023-03-16T11:10:55.993Z,3.37
2023-03-16T11:13:08.811Z,4.73
2023-03-16T11:15:25.843Z,3.90
2023-03-16T11:17:39.912Z,3.43
2023-03-16T11:19:52.797Z,2.50
2023-03-16T11:22:04.014Z,3.83
2023-03-16T11:24:18.621Z,3.80
2023-03-16T11:26:29.642Z,4.90
2023-03-16T11:28:39.776Z,2.57
2023-03-16T11:30:52.201Z,6.03
2023-03-16T11:33:02.251Z,4.40
2023-03-16T11:35:18.532Z,2.47
2023-03-16T11:37:33.980Z,3.63
2023-03-16T11:39:50.643Z,3.03
2023-03-16T11:42:02.611Z,1.90
2023-03-16T11:44:14.707Z,4.17
2023-03-16T11:46:25.896Z,4.17
2023-03-16T11:48:38.399Z,3.40
2023-03-16T11:50:53.014Z,5.20
2023-03-16T11:53:05.268Z,5.07
2023-03-16T11:55:21.752Z,2.80
2023-03-16T11:57:33.891Z,3.63
2023-03-16T12:00:00.604Z,5.37
2023-03-16T12:02:23.187Z,3.93
2023-03-16T12:04:36.921Z,3.93
2023-03-16T12:06:52.532Z,5.57
2023-03-16T12:09:16.334Z,6.70
2023-03-16T12:11:29.216Z,3.77
2023-03-16T12:13:42.236Z,5.43
2023-03-16T12:15:52.178Z,2.83
2023-03-16T12:18:03.848Z,2.00
2023-03-16T12:20:17.336Z,4.67
2023-03-16T12:22:30.064Z,2.27
2023-03-16T12:24:42.806Z,2.07
2023-03-16T12:26:54.085Z,11.70
2023-03-16T12:29:06.122Z,4.93
2023-03-16T12:31:16.796Z,4.83
2023-03-16T12:33:31.598Z,6.43
2023-03-16T12:35:45.263Z,3.27
2023-03-16T12:37:58.858Z,5.63
2023-03-16T12:40:12.368Z,5.30
2023-03-16T12:42:35.961Z,3.53
2023-03-16T12:44:48.925Z,2.37
2023-03-16T12:47:00.421Z,3.53
2023-03-16T12:49:10.460Z,4.97
2023-03-16T12:51:19.108Z,3.23
2023-03-16T12:53:29.304Z,2.80
2023-03-16T12:55:47.281Z,3.27
2023-03-16T12:58:03.809Z,6.27
2023-03-16T13:00:13.991Z,3.40
2023-03-16T13:02:26.736Z,3.27
2023-03-16T13:04:37.883Z,9.37
2023-03-16T13:06:49.624Z,5.40
2023-03-16T13:08:59.952Z,2.80
2023-03-16T13:11:09.731Z,4.20
2023-03-16T13:13:25.693Z,2.43
2023-03-16T13:15:34.880Z,4.07
2023-03-16T13:17:43.876Z,3.73
2023-03-16T13:20:06.812Z,3.83
2023-03-16T13:22:23.073Z,3.03
2023-03-16T13:24:40.421Z,2.73
2023-03-16T13:26:50.848Z,4.93
2023-03-16T13:29:01.745Z,3.83
2023-03-16T13:31:22.308Z,4.90
2023-03-16T13:33:33.107Z,4.00
2023-03-16T13:35:43.294Z,2.70
2023-03-16T13:37:52.269Z,1.50
2023-03-16T13:40:01.829Z,4.70
2023-03-16T13:42:19.101Z,2.87
2023-03-16T13:44:30.394Z,3.43
2023-03-16T13:46:39.294Z,2.67
2023-03-16T13:48:49.624Z,2.67
2023-03-16T13:50:59.508Z,2.23
2023-03-16T13:53:13.239Z,5.20
2023-03-16T13:55:26.195Z,2.60
2023-03-16T13:57:38.319Z,2.13
2023-03-16T13:59:48.453Z,9.23
2023-03-16T14:01:59.925Z,5.37
2023-03-16T14:04:14.035Z,2.70
2023-03-16T14:06:25.373Z,2.87
2023-03-16T14:08:35.436Z,4.30
2023-03-16T14:10:45.642Z,3.13
2023-03-16T14:12:55.051Z,3.63
2023-03-16T14:15:07.774Z,3.47
2023-03-16T14:17:18.316Z,54.63
2023-03-16T14:19:35.933Z,2.53
2023-03-16T14:21:46.258Z,5.33
2023-03-16T14:23:56.617Z,3.30
2023-03-16T14:26:06.399Z,4.77
2023-03-16T14:28:16.818Z,4.13
2023-03-16T14:30:28.133Z,2.70
2023-03-16T14:32:36.750Z,4.60
2023-03-16T14:34:50.922Z,3.13
2023-03-16T14:37:09.689Z,2.33
2023-03-16T14:39:21.478Z,9.60
2023-03-16T14:41:31.674Z,4.30
2023-03-16T14:43:43.239Z,3.43
2023-03-16T14:45:54.154Z,5.07
2023-03-16T14:48:05.431Z,2.27
2023-03-16T14:50:17.498Z,3.53
2023-03-16T14:52:28.065Z,9.70
2023-03-16T14:54:37.486Z,5.27
2023-03-16T14:56:49.750Z,2.73
2023-03-16T14:58:58.786Z,3.03
2023-03-16T15:01:12.456Z,3.00
2023-03-16T15:03:22.433Z,5.53
2023-03-16T15:05:35.315Z,3.40
2023-03-16T15:07:45.751Z,2.20
2023-03-16T15:09:55.746Z,3.90
2023-03-16T15:12:04.573Z,1.27
2023-03-16T15:14:36.110Z,2.33
2023-03-16T15:16:46.154Z,2.77
2023-03-16T15:18:55.115Z,2.70
2023-03-16T15:21:04.093Z,1.53
2023-03-16T15:23:15.311Z,1.63
2023-03-16T15:25:26.634Z,2.43
2023-03-16T15:27:38.025Z,3.63
2023-03-16T15:29:46.955Z,9.13
2023-03-16T15:31:58.083Z,3.23
2023-03-16T15:34:07.471Z,1.77
2023-03-16T15:36:17.008Z,5.07
2023-03-16T15:38:27.039Z,6.60
2023-03-16T15:40:37.941Z,10.10
2023-03-16T15:42:47.171Z,5.73
2023-03-16T15:44:56.402Z,2.93
2023-03-16T15:47:06.488Z,2.30
2023-03-16T15:49:15.448Z,0.87
2023-03-16T15:51:26.010Z,3.30
2023-03-16T15:53:38.122Z,3.67
2023-03-16T15:55:47.631Z,1.37
2023-03-16T15:57:59.159Z,2.97
2023-03-16T16:00:10.946Z,4.73
2023-03-16T16:02:28.172Z,5.77
2023-03-16T16:04:37.194Z,3.57
2023-03-16T16:06:46.223Z,2.37
2023-03-16T16:08:54.914Z,4.90
2023-03-16T16:11:09.284Z,1.73
2023-03-16T16:13:20.038Z,2.47
2023-03-16T16:15:31.311Z,3.07
2023-03-16T16:17:54.049Z,4.20
2023-03-16T16:20:18.714Z,4.83
2023-03-16T16:22:27.437Z,3.73
2023-03-16T16:24:36.618Z,1.60
2023-03-16T16:26:53.319Z,3.33
2023-03-16T16:29:05.040Z,7.30
2023-03-16T16:31:14.530Z,5.23
2023-03-16T16:33:26.218Z,6.23
2023-03-16T16:35:35.413Z,12.43
2023-03-16T16:37:45.253Z,8.03
2023-03-16T16:39:54.099Z,12.77
2023-03-16T16:42:03.346Z,7.97
2023-03-16T16:44:17.353Z,10.67
2023-03-16T16:46:27.419Z,8.00
2023-03-16T16:48:39.009Z,9.07
2023-03-16T16:50:47.858Z,10.50
2023-03-16T16:52:57.592Z,9.70
2023-03-16T16:55:06.965Z,6.10
2023-03-16T16:57:20.329Z,4.93
2023-03-16T16:59:31.495Z,7.00
2023-03-16T17:01:41.058Z,5.37
2023-03-16T17:03:51.442Z,9.93
2023-03-16T17:06:01.661Z,12.53
2023-03-16T17:08:11.560Z,13.80
2023-03-16T17:10:22.608Z,9.83
2023-03-16T17:12:31.813Z,6.83
2023-03-16T17:14:40.469Z,18.93
2023-03-16T17:16:50.678Z,10.53
2023-03-16T17:19:01.453Z,7.20
2023-03-16T17:21:11.960Z,8.87
2023-03-16T17:23:26.768Z,7.30
2023-03-16T17:25:35.317Z,18.80
2023-03-16T17:27:44.594Z,7.03
2023-03-16T17:29:53.680Z,12.97
2023-03-16T17:32:03.889Z,11.07
2023-03-16T17:34:18.627Z,9.17
2023-03-16T17:36:27.810Z,10.00
2023-03-16T17:38:36.341Z,11.17
2023-03-16T17:40:45.899Z,6.17
2023-03-16T17:42:55.714Z,7.97
2023-03-16T17:45:05.057Z,13.27
2023-03-16T17:47:18.100Z,15.43
2023-03-16T17:49:30.718Z,14.37
2023-03-16T17:51:40.512Z,13.33
2023-03-16T17:53:50.012Z,11.47
2023-03-16T17:55:59.324Z,15.27
2023-03-16T17:58:09.090Z,16.83
2023-03-16T18:00:24.022Z,18.20
2023-03-16T18:02:38.463Z,23.40
2023-03-16T18:04:49.046Z,17.00
2023-03-16T18:06:58.510Z,19.77
2023-03-16T18:09:07.942Z,18.57
2023-03-16T18:11:18.599Z,25.10
2023-03-16T18:13:29.243Z,31.77
2023-03-16T18:15:38.017Z,28.50
2023-03-16T18:17:47.640Z,26.13
2023-03-16T18:19:59.286Z,20.60
2023-03-16T18:22:09.056Z,27.83
2023-03-16T18:24:19.754Z,19.77
2023-03-16T18:26:28.689Z,18.17
2023-03-16T18:28:37.609Z,16.00
2023-03-16T18:30:47.768Z,14.63
2023-03-16T18:32:57.734Z,20.33
2023-03-16T18:35:09.458Z,19.50
2023-03-16T18:37:19.225Z,27.37
2023-03-16T18:39:28.129Z,17.20
2023-03-16T18:41:37.755Z,17.97
2023-03-16T18:43:46.780Z,27.50
2023-03-16T18:45:56.055Z,18.40
2023-03-16T18:48:04.870Z,17.70
2023-03-16T18:50:20.074Z,21.13
2023-03-16T18:52:30.092Z,16.93
2023-03-16T18:54:39.270Z,19.00
2023-03-16T18:56:48.600Z,20.20
2023-03-16T18:58:58.255Z,24.30
2023-03-16T19:01:08.469Z,17.13
2023-03-16T19:03:21.674Z,23.50
2023-03-16T19:05:35.832Z,28.03
2023-03-16T19:07:45.763Z,16.17
2023-03-16T19:09:54.971Z,18.17
2023-03-16T19:12:05.494Z,19.17
2023-03-16T19:14:18.978Z,27.13
2023-03-16T19:16:28.373Z,28.70
2023-03-16T19:18:42.197Z,13.87
2023-03-16T19:20:53.488Z,22.67
2023-03-16T19:23:04.932Z,19.63
2023-03-16T19:25:19.219Z,39.60
2023-03-16T19:27:33.636Z,28.07
2023-03-16T19:29:42.346Z,20.27
2023-03-16T19:31:51.597Z,21.63
2023-03-16T19:34:00.628Z,20.90
2023-03-16T19:36:16.394Z,15.43
2023-03-16T19:38:27.163Z,18.23
2023-03-16T19:40:36.419Z,21.30
2023-03-16T19:42:45.874Z,17.43
2023-03-16T19:44:55.022Z,18.30
2023-03-16T19:47:04.977Z,22.37
2023-03-16T19:49:16.685Z,20.80
2023-03-16T19:51:29.219Z,18.93
2023-03-16T19:53:37.939Z,20.70
2023-03-16T19:55:48.168Z,33.03
2023-03-16T19:58:01.532Z,19.70
2023-03-16T20:00:17.892Z,24.90
2023-03-16T20:02:29.218Z,24.77
2023-03-16T20:04:38.349Z,16.83
2023-03-16T20:06:50.015Z,23.27
2023-03-16T20:08:59.299Z,15.23
2023-03-16T20:11:09.883Z,19.67
2023-03-16T20:13:19.617Z,17.03
2023-03-16T20:15:31.561Z,17.93
2023-03-16T20:17:40.661Z,21.07
2023-03-16T20:19:49.946Z,12.50
2023-03-16T20:22:00.780Z,15.13
2023-03-16T20:24:14.297Z,19.77
2023-03-16T20:26:24.436Z,18.27
2023-03-16T20:28:35.015Z,19.60
2023-03-16T20:30:43.754Z,16.80
2023-03-16T20:32:52.649Z,19.37
2023-03-16T20:35:01.666Z,14.47
2023-03-16T20:37:24.210Z,23.93
2023-03-16T20:39:33.215Z,21.93
2023-03-16T20:41:42.650Z,14.50
2023-03-16T20:43:51.982Z,16.00
2023-03-16T20:46:02.491Z,17.30
2023-03-16T20:48:16.227Z,16.57
2023-03-16T20:50:28.311Z,21.33
2023-03-16T20:52:38.873Z,16.60
2023-03-16T20:54:47.814Z,14.40
2023-03-16T20:56:57.070Z,19.83
2023-03-16T20:59:06.136Z,17.17
2023-03-16T21:01:17.941Z,19.70
2023-03-16T21:03:28.135Z,16.70
2023-03-16T21:05:37.566Z,16.23
2023-03-16T21:07:48.362Z,13.17
2023-03-16T21:09:57.688Z,17.30
2023-03-16T21:12:07.544Z,16.47
2023-03-16T21:14:18.482Z,18.40
2023-03-16T21:16:27.512Z,17.17
2023-03-16T21:18:38.502Z,18.17
2023-03-16T21:20:47.918Z,19.80
2023-03-16T21:22:58.644Z,26.33
2023-03-16T21:25:07.698Z,22.10
2023-03-16T21:27:20.129Z,26.80
2023-03-16T21:29:29.036Z,19.17
2023-03-16T21:31:38.260Z,18.43
2023-03-16T21:33:48.382Z,16.33
2023-03-16T21:35:57.497Z,17.40
2023-03-16T21:38:14.299Z,20.87
2023-03-16T21:40:24.610Z,16.07
2023-03-16T21:42:33.330Z,16.33
2023-03-16T21:44:42.580Z,16.83
2023-03-16T21:46:51.539Z,21.37
2023-03-16T21:49:00.473Z,23.40
2023-03-16T21:51:14.273Z,19.07
2023-03-16T21:53:25.705Z,18.77
2023-03-16T21:55:34.639Z,18.33
2023-03-16T21:57:44.050Z,23.17
2023-03-16T21:59:53.062Z,24.10
2023-03-16T22:02:02.596Z,18.73
2023-03-16T22:04:16.117Z,21.57
2023-03-16T22:06:28.121Z,24.60
2023-03-16T22:08:39.201Z,19.20
2023-03-16T22:10:48.527Z,25.60
2023-03-16T22:12:58.048Z,19.73
2023-03-16T22:15:07.372Z,19.97
2023-03-16T22:17:21.274Z,19.73
2023-03-16T22:19:30.298Z,22.10
2023-03-16T22:21:40.331Z,23.03
2023-03-16T22:23:50.744Z,27.47
2023-03-16T22:25:59.982Z,21.37
2023-03-16T22:28:12.886Z,23.03
2023-03-16T22:30:22.857Z,19.60
2023-03-16T22:32:31.797Z,19.70
2023-03-16T22:34:43.401Z,27.13
2023-03-16T22:36:52.495Z,21.37
2023-03-16T22:39:04.954Z,21.57
2023-03-16T22:41:15.051Z,17.17
2023-03-16T22:43:28.315Z,20.03
2023-03-16T22:45:37.248Z,24.67
2023-03-16T22:47:47.892Z,25.53
2023-03-16T22:49:56.986Z,19.13
2023-03-16T22:52:06.293Z,16.50
2023-03-16T22:54:19.894Z,21.63
2023-03-16T22:56:28.882Z,24.63
2023-03-16T22:58:39.537Z,20.90
2023-03-16T23:00:48.601Z,23.57
2023-03-16T23:02:57.833Z,18.00
2023-03-16T23:05:19.801Z,19.63
2023-03-16T23:07:28.503Z,21.80
2023-03-16T23:09:39.331Z,16.23
2023-03-16T23:11:49.388Z,23.70
2023-03-16T23:13:58.247Z,19.17
2023-03-16T23:16:07.994Z,15.73
2023-03-16T23:18:17.885Z,16.77
2023-03-16T23:20:29.125Z,15.23
2023-03-16T23:22:37.946Z,14.03
2023-03-16T23:24:48.223Z,16.50
2023-03-16T23:26:57.534Z,15.47
2023-03-16T23:29:06.178Z,12.20
2023-03-16T23:31:16.095Z,17.90
2023-03-16T23:33:24.930Z,10.60
2023-03-16T23:35:34.164Z,13.40
2023-03-16T23:37:43.132Z,11.43
2023-03-16T23:39:54.026Z,18.47
2023-03-16T23:42:02.598Z,14.43
2023-03-16T23:44:13.940Z,15.83
2023-03-16T23:46:24.563Z,16.37
2023-03-16T23:48:33.928Z,12.17
2023-03-16T23:50:43.486Z,15.90
2023-03-16T23:52:52.221Z,18.70
2023-03-16T23:55:02.646Z,17.30
2023-03-16T23:57:11.570Z,16.23
2023-03-16T23:59:20.950Z,13.50
